sensor_id;sensor_type;location;lat;lon;timestamp;temperature;humidity
61841;DHT22;47773;53.174;6.614;2023-04-24T00:00:11;11.90;99.90
61841;DHT22;47773;53.174;6.614;2023-04-24T00:02:44;11.90;99.90
61841;DHT22;47773;53.174;6.614;2023-04-24T00:05:16;11.90;99.90
61841;DHT22;47773;53.174;6.614;2023-04-24T00:07:44;11.90;99.90
61841;DHT22;47773;53.174;6.614;2023-04-24T00:10:11;11.90;99.90
61841;DHT22;47773;53.174;6.614;2023-04-24T00:12:37;11.90;99.90
61841;DHT22;47773;53.174;6.614;2023-04-24T00:15:04;11.90;99.90
61841;DHT22;47773;53.174;6.614;2023-04-24T00:17:30;12.00;99.90
61841;DHT22;47773;53.174;6.614;2023-04-24T00:19:56;12.00;99.90
61841;DHT22;47773;53.174;6.614;2023-04-24T00:22:26;12.00;99.90
61841;DHT22;47773;53.174;6.614;2023-04-24T00:24:52;11.80;99.90
61841;DHT22;47773;53.174;6.614;2023-04-24T00:27:17;11.80;99.90
61841;DHT22;47773;53.174;6.614;2023-04-24T00:29:43;11.70;99.90
61841;DHT22;47773;53.174;6.614;2023-04-24T00:32:08;11.60;99.90
61841;DHT22;47773;53.174;6.614;2023-04-24T00:34:34;11.60;99.90
61841;DHT22;47773;53.174;6.614;2023-04-24T00:37:00;11.60;99.90
61841;DHT22;47773;53.174;6.614;2023-04-24T00:39:26;11.50;99.90
61841;DHT22;47773;53.174;6.614;2023-04-24T00:41:52;11.50;99.90
61841;DHT22;47773;53.174;6.614;2023-04-24T00:44:18;11.50;99.90
61841;DHT22;47773;53.174;6.614;2023-04-24T00:46:44;11.50;99.90
61841;DHT22;47773;53.174;6.614;2023-04-24T00:49:12;11.40;99.90
61841;DHT22;47773;53.174;6.614;2023-04-24T00:51:37;11.40;99.90
61841;DHT22;47773;53.174;6.614;2023-04-24T00:54:03;11.30;99.90
61841;DHT22;47773;53.174;6.614;2023-04-24T00:56:29;11.30;99.90
61841;DHT22;47773;53.174;6.614;2023-04-24T00:58:55;11.30;99.90
61841;DHT22;47773;53.174;6.614;2023-04-24T01:01:21;11.30;99.90
61841;DHT22;47773;53.174;6.614;2023-04-24T01:03:49;11.30;99.90
61841;DHT22;47773;53.174;6.614;2023-04-24T01:06:16;11.30;99.90
61841;DHT22;47773;53.174;6.614;2023-04-24T01:08:42;11.20;99.90
61841;DHT22;47773;53.174;6.614;2023-04-24T01:11:08;11.20;99.90
61841;DHT22;47773;53.174;6.614;2023-04-24T01:13:34;11.20;99.90
61841;DHT22;47773;53.174;6.614;2023-04-24T01:16:00;11.20;99.90
61841;DHT22;47773;53.174;6.614;2023-04-24T01:18:26;11.20;99.90
61841;DHT22;47773;53.174;6.614;2023-04-24T01:20:54;11.10;99.90
61841;DHT22;47773;53.174;6.614;2023-04-24T01:23:22;11.10;99.90
61841;DHT22;47773;53.174;6.614;2023-04-24T01:25:48;11.00;99.90
61841;DHT22;47773;53.174;6.614;2023-04-24T01:28:15;11.10;99.90
61841;DHT22;47773;53.174;6.614;2023-04-24T01:30:41;11.00;99.90
61841;DHT22;47773;53.174;6.614;2023-04-24T01:33:07;11.10;99.90
61841;DHT22;47773;53.174;6.614;2023-04-24T01:35:33;11.10;99.90
61841;DHT22;47773;53.174;6.614;2023-04-24T01:37:58;11.10;99.90
61841;DHT22;47773;53.174;6.614;2023-04-24T01:40:24;11.10;99.90
61841;DHT22;47773;53.174;6.614;2023-04-24T01:42:50;11.10;99.90
61841;DHT22;47773;53.174;6.614;2023-04-24T01:45:16;11.10;99.90
61841;DHT22;47773;53.174;6.614;2023-04-24T01:47:42;11.10;99.90
61841;DHT22;47773;53.174;6.614;2023-04-24T01:50:08;11.10;99.90
61841;DHT22;47773;53.174;6.614;2023-04-24T01:52:34;11.10;99.90
61841;DHT22;47773;53.174;6.614;2023-04-24T01:55:04;11.00;99.90
61841;DHT22;47773;53.174;6.614;2023-04-24T01:57:31;11.10;99.90
61841;DHT22;47773;53.174;6.614;2023-04-24T01:59:57;11.10;99.90
61841;DHT22;47773;53.174;6.614;2023-04-24T02:02:23;11.10;99.90
61841;DHT22;47773;53.174;6.614;2023-04-24T02:04:50;11.10;99.90
61841;DHT22;47773;53.174;6.614;2023-04-24T02:07:16;11.10;99.90
61841;DHT22;47773;53.174;6.614;2023-04-24T02:09:41;11.00;99.90
61841;DHT22;47773;53.174;6.614;2023-04-24T02:12:07;11.00;99.90
61841;DHT22;47773;53.174;6.614;2023-04-24T02:14:33;11.00;99.90
61841;DHT22;47773;53.174;6.614;2023-04-24T02:16:59;10.90;99.90
61841;DHT22;47773;53.174;6.614;2023-04-24T02:19:26;10.90;99.90
61841;DHT22;47773;53.174;6.614;2023-04-24T02:21:52;10.80;99.90
61841;DHT22;47773;53.174;6.614;2023-04-24T02:24:17;10.80;99.90
61841;DHT22;47773;53.174;6.614;2023-04-24T02:26:43;10.70;99.90
61841;DHT22;47773;53.174;6.614;2023-04-24T02:29:09;10.70;99.90
61841;DHT22;47773;53.174;6.614;2023-04-24T02:31:34;10.70;99.90
61841;DHT22;47773;53.174;6.614;2023-04-24T02:34:00;10.70;99.90
61841;DHT22;47773;53.174;6.614;2023-04-24T02:36:26;10.70;99.90
61841;DHT22;47773;53.174;6.614;2023-04-24T02:38:52;10.70;99.90
61841;DHT22;47773;53.174;6.614;2023-04-24T02:41:17;10.70;99.90
61841;DHT22;47773;53.174;6.614;2023-04-24T02:43:43;10.70;99.90
61841;DHT22;47773;53.174;6.614;2023-04-24T02:46:09;10.70;99.90
61841;DHT22;47773;53.174;6.614;2023-04-24T02:48:34;10.70;99.90
61841;DHT22;47773;53.174;6.614;2023-04-24T02:51:00;10.60;99.90
61841;DHT22;47773;53.174;6.614;2023-04-24T02:53:26;10.60;99.90
61841;DHT22;47773;53.174;6.614;2023-04-24T02:55:51;10.70;99.90
61841;DHT22;47773;53.174;6.614;2023-04-24T02:58:17;10.60;99.90
61841;DHT22;47773;53.174;6.614;2023-04-24T03:00:45;10.60;99.90
61841;DHT22;47773;53.174;6.614;2023-04-24T03:03:11;10.70;99.90
61841;DHT22;47773;53.174;6.614;2023-04-24T03:05:37;10.70;99.90
61841;DHT22;47773;53.174;6.614;2023-04-24T03:08:02;10.60;99.90
61841;DHT22;47773;53.174;6.614;2023-04-24T03:10:28;10.70;99.90
61841;DHT22;47773;53.174;6.614;2023-04-24T03:12:54;10.70;99.90
61841;DHT22;47773;53.174;6.614;2023-04-24T03:15:20;10.70;99.90
61841;DHT22;47773;53.174;6.614;2023-04-24T03:17:46;10.70;99.90
61841;DHT22;47773;53.174;6.614;2023-04-24T03:20:11;10.70;99.90
61841;DHT22;47773;53.174;6.614;2023-04-24T03:22:37;10.70;99.90
61841;DHT22;47773;53.174;6.614;2023-04-24T03:25:03;10.70;99.90
61841;DHT22;47773;53.174;6.614;2023-04-24T03:27:29;10.70;99.90
61841;DHT22;47773;53.174;6.614;2023-04-24T03:29:56;10.70;99.90
61841;DHT22;47773;53.174;6.614;2023-04-24T03:32:22;10.70;99.90
61841;DHT22;47773;53.174;6.614;2023-04-24T03:34:48;10.70;99.90
61841;DHT22;47773;53.174;6.614;2023-04-24T03:37:18;10.70;99.90
61841;DHT22;47773;53.174;6.614;2023-04-24T03:39:43;10.70;99.90
61841;DHT22;47773;53.174;6.614;2023-04-24T03:42:09;10.70;99.90
61841;DHT22;47773;53.174;6.614;2023-04-24T03:44:35;10.70;99.90
61841;DHT22;47773;53.174;6.614;2023-04-24T03:47:01;10.60;99.90
61841;DHT22;47773;53.174;6.614;2023-04-24T03:49:27;10.60;99.90
61841;DHT22;47773;53.174;6.614;2023-04-24T03:51:53;10.60;99.90
61841;DHT22;47773;53.174;6.614;2023-04-24T03:54:19;10.60;99.90
61841;DHT22;47773;53.174;6.614;2023-04-24T03:56:45;10.60;99.90
61841;DHT22;47773;53.174;6.614;2023-04-24T03:59:11;10.60;99.90
61841;DHT22;47773;53.174;6.614;2023-04-24T04:01:37;10.60;99.90
61841;DHT22;47773;53.174;6.614;2023-04-24T04:04:03;10.60;99.90
61841;DHT22;47773;53.174;6.614;2023-04-24T04:06:29;10.60;99.90
61841;DHT22;47773;53.174;6.614;2023-04-24T04:08:56;10.60;99.90
61841;DHT22;47773;53.174;6.614;2023-04-24T04:11:22;10.60;99.90
61841;DHT22;47773;53.174;6.614;2023-04-24T04:13:48;10.60;99.90
61841;DHT22;47773;53.174;6.614;2023-04-24T04:16:14;10.60;99.90
61841;DHT22;47773;53.174;6.614;2023-04-24T04:18:42;10.60;99.90
61841;DHT22;47773;53.174;6.614;2023-04-24T04:21:08;10.60;99.90
61841;DHT22;47773;53.174;6.614;2023-04-24T04:23:33;10.50;99.90
61841;DHT22;47773;53.174;6.614;2023-04-24T04:25:59;10.60;99.90
61841;DHT22;47773;53.174;6.614;2023-04-24T04:28:25;10.50;99.90
61841;DHT22;47773;53.174;6.614;2023-04-24T04:30:51;10.50;99.90
61841;DHT22;47773;53.174;6.614;2023-04-24T04:33:21;10.60;99.90
61841;DHT22;47773;53.174;6.614;2023-04-24T04:35:47;10.50;99.90
61841;DHT22;47773;53.174;6.614;2023-04-24T04:38:18;10.50;99.90
61841;DHT22;47773;53.174;6.614;2023-04-24T04:40:44;10.50;99.90
61841;DHT22;47773;53.174;6.614;2023-04-24T04:43:10;10.50;99.90
61841;DHT22;47773;53.174;6.614;2023-04-24T04:45:37;10.50;99.90
61841;DHT22;47773;53.174;6.614;2023-04-24T04:48:04;10.50;99.90
61841;DHT22;47773;53.174;6.614;2023-04-24T04:50:33;10.50;99.90
61841;DHT22;47773;53.174;6.614;2023-04-24T04:52:58;10.50;99.90
61841;DHT22;47773;53.174;6.614;2023-04-24T04:55:24;10.50;99.90
61841;DHT22;47773;53.174;6.614;2023-04-24T04:57:51;10.50;99.90
61841;DHT22;47773;53.174;6.614;2023-04-24T05:00:17;10.50;99.90
61841;DHT22;47773;53.174;6.614;2023-04-24T05:02:43;10.50;99.90
61841;DHT22;47773;53.174;6.614;2023-04-24T05:05:09;10.50;99.90
61841;DHT22;47773;53.174;6.614;2023-04-24T05:07:35;10.50;99.90
61841;DHT22;47773;53.174;6.614;2023-04-24T05:10:01;10.50;99.90
61841;DHT22;47773;53.174;6.614;2023-04-24T05:12:27;10.50;99.90
61841;DHT22;47773;53.174;6.614;2023-04-24T05:14:53;10.50;99.90
61841;DHT22;47773;53.174;6.614;2023-04-24T05:17:18;10.50;99.90
61841;DHT22;47773;53.174;6.614;2023-04-24T05:19:44;10.40;99.90
61841;DHT22;47773;53.174;6.614;2023-04-24T05:22:10;10.40;99.90
61841;DHT22;47773;53.174;6.614;2023-04-24T05:24:37;10.50;99.90
61841;DHT22;47773;53.174;6.614;2023-04-24T05:27:03;10.50;99.90
61841;DHT22;47773;53.174;6.614;2023-04-24T05:29:30;10.50;99.90
61841;DHT22;47773;53.174;6.614;2023-04-24T05:31:57;10.50;99.90
61841;DHT22;47773;53.174;6.614;2023-04-24T05:34:23;10.50;99.90
61841;DHT22;47773;53.174;6.614;2023-04-24T05:36:48;10.60;99.90
61841;DHT22;47773;53.174;6.614;2023-04-24T05:39:16;10.70;99.90
61841;DHT22;47773;53.174;6.614;2023-04-24T05:41:41;10.70;99.90
61841;DHT22;47773;53.174;6.614;2023-04-24T05:44:07;10.80;99.90
61841;DHT22;47773;53.174;6.614;2023-04-24T05:46:33;10.80;99.90
61841;DHT22;47773;53.174;6.614;2023-04-24T05:48:59;10.80;99.90
61841;DHT22;47773;53.174;6.614;2023-04-24T05:51:24;10.90;99.90
61841;DHT22;47773;53.174;6.614;2023-04-24T05:53:51;10.90;99.90
61841;DHT22;47773;53.174;6.614;2023-04-24T05:56:17;11.00;99.90
61841;DHT22;47773;53.174;6.614;2023-04-24T05:58:42;11.00;99.90
61841;DHT22;47773;53.174;6.614;2023-04-24T06:01:08;11.00;99.90
61841;DHT22;47773;53.174;6.614;2023-04-24T06:03:34;11.10;99.90
61841;DHT22;47773;53.174;6.614;2023-04-24T06:06:00;11.10;99.90
61841;DHT22;47773;53.174;6.614;2023-04-24T06:08:26;11.10;99.90
61841;DHT22;47773;53.174;6.614;2023-04-24T06:10:51;11.10;99.90
61841;DHT22;47773;53.174;6.614;2023-04-24T06:13:17;11.10;99.90
61841;DHT22;47773;53.174;6.614;2023-04-24T06:15:43;11.10;99.90
61841;DHT22;47773;53.174;6.614;2023-04-24T06:18:09;11.10;99.90
61841;DHT22;47773;53.174;6.614;2023-04-24T06:20:38;11.10;99.90
61841;DHT22;47773;53.174;6.614;2023-04-24T06:23:04;11.00;99.90
61841;DHT22;47773;53.174;6.614;2023-04-24T06:25:29;11.00;99.90
61841;DHT22;47773;53.174;6.614;2023-04-24T06:27:56;11.00;99.90
61841;DHT22;47773;53.174;6.614;2023-04-24T06:30:22;11.00;99.90
61841;DHT22;47773;53.174;6.614;2023-04-24T06:32:48;11.00;99.90
61841;DHT22;47773;53.174;6.614;2023-04-24T06:35:13;11.00;99.90
61841;DHT22;47773;53.174;6.614;2023-04-24T06:37:41;11.00;99.90
61841;DHT22;47773;53.174;6.614;2023-04-24T06:40:07;11.00;99.90
61841;DHT22;47773;53.174;6.614;2023-04-24T06:42:34;11.00;99.90
61841;DHT22;47773;53.174;6.614;2023-04-24T06:45:00;11.00;99.90
61841;DHT22;47773;53.174;6.614;2023-04-24T06:47:26;11.00;99.90
61841;DHT22;47773;53.174;6.614;2023-04-24T06:49:52;11.00;99.90
61841;DHT22;47773;53.174;6.614;2023-04-24T06:52:19;11.00;99.90
61841;DHT22;47773;53.174;6.614;2023-04-24T06:54:45;11.00;99.90
61841;DHT22;47773;53.174;6.614;2023-04-24T06:57:11;10.90;99.90
61841;DHT22;47773;53.174;6.614;2023-04-24T06:59:37;11.00;99.90
61841;DHT22;47773;53.174;6.614;2023-04-24T07:02:03;10.90;99.90
61841;DHT22;47773;53.174;6.614;2023-04-24T07:04:29;10.90;99.90
61841;DHT22;47773;53.174;6.614;2023-04-24T07:06:55;10.90;99.90
61841;DHT22;47773;53.174;6.614;2023-04-24T07:09:22;10.80;99.90
61841;DHT22;47773;53.174;6.614;2023-04-24T07:11:49;10.80;99.90
61841;DHT22;47773;53.174;6.614;2023-04-24T07:14:15;10.80;99.90
61841;DHT22;47773;53.174;6.614;2023-04-24T07:16:41;10.80;99.90
61841;DHT22;47773;53.174;6.614;2023-04-24T07:19:08;10.80;99.90
61841;DHT22;47773;53.174;6.614;2023-04-24T07:21:34;10.80;99.90
61841;DHT22;47773;53.174;6.614;2023-04-24T07:23:59;10.80;99.90
61841;DHT22;47773;53.174;6.614;2023-04-24T07:26:26;10.80;99.90
61841;DHT22;47773;53.174;6.614;2023-04-24T07:28:53;10.70;99.90
61841;DHT22;47773;53.174;6.614;2023-04-24T07:31:18;10.70;99.90
61841;DHT22;47773;53.174;6.614;2023-04-24T07:33:44;10.70;99.90
61841;DHT22;47773;53.174;6.614;2023-04-24T07:36:11;10.70;99.90
61841;DHT22;47773;53.174;6.614;2023-04-24T07:38:42;10.70;99.90
61841;DHT22;47773;53.174;6.614;2023-04-24T07:41:07;10.70;99.90
61841;DHT22;47773;53.174;6.614;2023-04-24T07:43:33;10.60;99.90
61841;DHT22;47773;53.174;6.614;2023-04-24T07:45:59;10.70;99.90
61841;DHT22;47773;53.174;6.614;2023-04-24T07:48:25;10.70;99.90
61841;DHT22;47773;53.174;6.614;2023-04-24T07:50:52;10.70;99.90
61841;DHT22;47773;53.174;6.614;2023-04-24T07:53:18;10.70;99.90
61841;DHT22;47773;53.174;6.614;2023-04-24T07:55:43;10.70;99.90
61841;DHT22;47773;53.174;6.614;2023-04-24T07:58:09;10.80;99.90
61841;DHT22;47773;53.174;6.614;2023-04-24T08:00:35;10.80;99.90
61841;DHT22;47773;53.174;6.614;2023-04-24T08:03:00;10.80;99.90
61841;DHT22;47773;53.174;6.614;2023-04-24T08:05:26;10.70;99.90
61841;DHT22;47773;53.174;6.614;2023-04-24T08:07:54;10.70;99.90
61841;DHT22;47773;53.174;6.614;2023-04-24T08:10:21;10.70;99.90
61841;DHT22;47773;53.174;6.614;2023-04-24T08:12:47;10.60;99.90
61841;DHT22;47773;53.174;6.614;2023-04-24T08:15:12;10.70;99.90
61841;DHT22;47773;53.174;6.614;2023-04-24T08:17:38;10.70;99.90
61841;DHT22;47773;53.174;6.614;2023-04-24T08:20:04;10.70;99.90
61841;DHT22;47773;53.174;6.614;2023-04-24T08:22:30;10.70;99.90
61841;DHT22;47773;53.174;6.614;2023-04-24T08:24:58;10.70;99.90
61841;DHT22;47773;53.174;6.614;2023-04-24T08:27:24;10.60;99.90
61841;DHT22;47773;53.174;6.614;2023-04-24T08:29:52;10.60;99.90
61841;DHT22;47773;53.174;6.614;2023-04-24T08:32:18;10.60;99.90
61841;DHT22;47773;53.174;6.614;2023-04-24T08:34:43;10.60;99.90
61841;DHT22;47773;53.174;6.614;2023-04-24T08:37:09;10.60;99.90
61841;DHT22;47773;53.174;6.614;2023-04-24T08:39:35;10.60;99.90
61841;DHT22;47773;53.174;6.614;2023-04-24T08:42:01;10.60;99.90
61841;DHT22;47773;53.174;6.614;2023-04-24T08:44:32;10.50;99.90
61841;DHT22;47773;53.174;6.614;2023-04-24T08:46:58;10.50;99.90
61841;DHT22;47773;53.174;6.614;2023-04-24T08:49:24;10.50;99.90
61841;DHT22;47773;53.174;6.614;2023-04-24T08:51:50;10.50;99.90
61841;DHT22;47773;53.174;6.614;2023-04-24T08:54:18;10.40;99.90
61841;DHT22;47773;53.174;6.614;2023-04-24T08:56:44;10.40;99.90
61841;DHT22;47773;53.174;6.614;2023-04-24T08:59:10;10.30;99.90
61841;DHT22;47773;53.174;6.614;2023-04-24T09:01:37;10.30;99.90
61841;DHT22;47773;53.174;6.614;2023-04-24T09:04:07;10.30;99.90
61841;DHT22;47773;53.174;6.614;2023-04-24T09:06:34;10.30;99.90
61841;DHT22;47773;53.174;6.614;2023-04-24T09:09:01;10.20;99.90
61841;DHT22;47773;53.174;6.614;2023-04-24T09:11:27;10.20;99.90
61841;DHT22;47773;53.174;6.614;2023-04-24T09:13:56;10.20;99.90
61841;DHT22;47773;53.174;6.614;2023-04-24T09:16:24;10.20;99.90
61841;DHT22;47773;53.174;6.614;2023-04-24T09:18:51;10.10;99.90
61841;DHT22;47773;53.174;6.614;2023-04-24T09:21:16;10.10;99.90
61841;DHT22;47773;53.174;6.614;2023-04-24T09:23:42;10.10;99.90
61841;DHT22;47773;53.174;6.614;2023-04-24T09:26:09;10.10;99.90
61841;DHT22;47773;53.174;6.614;2023-04-24T09:28:38;10.10;99.90
61841;DHT22;47773;53.174;6.614;2023-04-24T09:31:07;10.20;99.90
61841;DHT22;47773;53.174;6.614;2023-04-24T09:33:33;10.10;99.90
61841;DHT22;47773;53.174;6.614;2023-04-24T09:35:59;10.10;99.90
61841;DHT22;47773;53.174;6.614;2023-04-24T09:38:33;10.10;99.90
61841;DHT22;47773;53.174;6.614;2023-04-24T09:41:00;10.10;99.90
61841;DHT22;47773;53.174;6.614;2023-04-24T09:43:28;10.20;99.90
61841;DHT22;47773;53.174;6.614;2023-04-24T09:45:56;10.10;99.90
61841;DHT22;47773;53.174;6.614;2023-04-24T09:48:36;10.10;99.90
61841;DHT22;47773;53.174;6.614;2023-04-24T09:51:04;10.20;99.90
61841;DHT22;47773;53.174;6.614;2023-04-24T09:53:32;10.10;99.90
61841;DHT22;47773;53.174;6.614;2023-04-24T09:56:08;10.20;99.90
61841;DHT22;47773;53.174;6.614;2023-04-24T09:58:35;10.20;99.90
61841;DHT22;47773;53.174;6.614;2023-04-24T10:01:02;10.20;99.90
61841;DHT22;47773;53.174;6.614;2023-04-24T10:03:32;10.10;99.90
61841;DHT22;47773;53.174;6.614;2023-04-24T10:05:59;10.20;99.90
61841;DHT22;47773;53.174;6.614;2023-04-24T10:08:25;10.20;99.90
61841;DHT22;47773;53.174;6.614;2023-04-24T10:10:52;10.30;99.90
61841;DHT22;47773;53.174;6.614;2023-04-24T10:13:18;10.30;99.90
61841;DHT22;47773;53.174;6.614;2023-04-24T10:15:44;10.40;99.90
61841;DHT22;47773;53.174;6.614;2023-04-24T10:18:10;10.50;99.90
61841;DHT22;47773;53.174;6.614;2023-04-24T10:20:38;10.60;99.90
61841;DHT22;47773;53.174;6.614;2023-04-24T10:23:05;10.70;99.90
61841;DHT22;47773;53.174;6.614;2023-04-24T10:25:32;10.80;99.90
61841;DHT22;47773;53.174;6.614;2023-04-24T10:27:59;10.90;99.90
61841;DHT22;47773;53.174;6.614;2023-04-24T10:30:29;11.00;99.90
61841;DHT22;47773;53.174;6.614;2023-04-24T10:32:55;11.10;99.90
61841;DHT22;47773;53.174;6.614;2023-04-24T10:35:22;11.10;99.90
61841;DHT22;47773;53.174;6.614;2023-04-24T10:37:54;11.10;99.90
61841;DHT22;47773;53.174;6.614;2023-04-24T10:40:31;11.20;99.90
61841;DHT22;47773;53.174;6.614;2023-04-24T10:42:59;11.30;99.90
61841;DHT22;47773;53.174;6.614;2023-04-24T10:45:25;11.30;99.90
61841;DHT22;47773;53.174;6.614;2023-04-24T10:48:03;11.40;99.90
61841;DHT22;47773;53.174;6.614;2023-04-24T10:50:41;11.30;99.90
61841;DHT22;47773;53.174;6.614;2023-04-24T10:53:11;11.40;99.90
61841;DHT22;47773;53.174;6.614;2023-04-24T10:56:07;11.30;99.90
61841;DHT22;47773;53.174;6.614;2023-04-24T10:58:43;11.40;99.90
61841;DHT22;47773;53.174;6.614;2023-04-24T11:01:30;11.40;99.90
61841;DHT22;47773;53.174;6.614;2023-04-24T11:04:00;11.50;99.90
61841;DHT22;47773;53.174;6.614;2023-04-24T11:06:32;11.50;99.90
61841;DHT22;47773;53.174;6.614;2023-04-24T11:09:10;11.50;99.90
61841;DHT22;47773;53.174;6.614;2023-04-24T11:11:38;11.40;99.90
61841;DHT22;47773;53.174;6.614;2023-04-24T11:14:09;11.40;99.90
61841;DHT22;47773;53.174;6.614;2023-04-24T11:19:25;11.30;99.90
61841;DHT22;47773;53.174;6.614;2023-04-24T11:21:59;11.20;99.90
61841;DHT22;47773;53.174;6.614;2023-04-24T11:29:49;11.00;99.90
61841;DHT22;47773;53.174;6.614;2023-04-24T11:37:51;11.20;99.90
61841;DHT22;47773;53.174;6.614;2023-04-24T11:40:18;11.20;99.90
61841;DHT22;47773;53.174;6.614;2023-04-24T11:42:50;11.10;99.90
61841;DHT22;47773;53.174;6.614;2023-04-24T11:45:18;11.10;99.90
61841;DHT22;47773;53.174;6.614;2023-04-24T11:47:44;11.00;99.90
61841;DHT22;47773;53.174;6.614;2023-04-24T11:50:15;11.00;99.90
61841;DHT22;47773;53.174;6.614;2023-04-24T11:52:46;11.10;99.90
61841;DHT22;47773;53.174;6.614;2023-04-24T11:57:50;11.10;99.90
61841;DHT22;47773;53.174;6.614;2023-04-24T12:00:28;11.10;99.90
61841;DHT22;47773;53.174;6.614;2023-04-24T12:03:10;11.10;99.90
61841;DHT22;47773;53.174;6.614;2023-04-24T12:05:37;11.10;99.90
61841;DHT22;47773;53.174;6.614;2023-04-24T12:08:03;11.00;99.90
61841;DHT22;47773;53.174;6.614;2023-04-24T12:10:30;11.00;99.90
61841;DHT22;47773;53.174;6.614;2023-04-24T12:12:58;11.00;99.90
61841;DHT22;47773;53.174;6.614;2023-04-24T12:15:24;11.10;99.90
61841;DHT22;47773;53.174;6.614;2023-04-24T12:17:51;10.90;99.90
61841;DHT22;47773;53.174;6.614;2023-04-24T12:20:19;10.80;99.90
61841;DHT22;47773;53.174;6.614;2023-04-24T12:22:59;10.80;99.90
61841;DHT22;47773;53.174;6.614;2023-04-24T12:25:31;10.80;99.90
61841;DHT22;47773;53.174;6.614;2023-04-24T12:30:33;10.90;99.90
61841;DHT22;47773;53.174;6.614;2023-04-24T12:32:59;10.90;99.90
61841;DHT22;47773;53.174;6.614;2023-04-24T12:35:28;10.90;99.90
61841;DHT22;47773;53.174;6.614;2023-04-24T12:37:54;11.00;99.90
61841;DHT22;47773;53.174;6.614;2023-04-24T12:40:21;11.10;99.90
61841;DHT22;47773;53.174;6.614;2023-04-24T12:42:48;11.30;99.90
61841;DHT22;47773;53.174;6.614;2023-04-24T12:45:15;11.40;99.90
61841;DHT22;47773;53.174;6.614;2023-04-24T12:47:42;11.40;99.90
61841;DHT22;47773;53.174;6.614;2023-04-24T12:50:10;11.30;99.90
61841;DHT22;47773;53.174;6.614;2023-04-24T12:52:36;11.20;99.90
61841;DHT22;47773;53.174;6.614;2023-04-24T12:55:02;11.20;99.90
61841;DHT22;47773;53.174;6.614;2023-04-24T12:57:30;11.20;99.90
61841;DHT22;47773;53.174;6.614;2023-04-24T12:59:58;11.20;99.90
61841;DHT22;47773;53.174;6.614;2023-04-24T13:02:25;11.20;99.90
61841;DHT22;47773;53.174;6.614;2023-04-24T13:04:52;11.20;99.90
61841;DHT22;47773;53.174;6.614;2023-04-24T13:07:19;11.10;99.90
61841;DHT22;47773;53.174;6.614;2023-04-24T13:09:45;11.10;99.90
61841;DHT22;47773;53.174;6.614;2023-04-24T13:12:13;11.00;99.90
61841;DHT22;47773;53.174;6.614;2023-04-24T13:14:39;11.00;99.90
61841;DHT22;47773;53.174;6.614;2023-04-24T13:17:04;11.00;99.90
61841;DHT22;47773;53.174;6.614;2023-04-24T13:19:39;10.90;99.90
61841;DHT22;47773;53.174;6.614;2023-04-24T13:22:05;10.90;99.90
61841;DHT22;47773;53.174;6.614;2023-04-24T13:24:31;10.90;99.90
61841;DHT22;47773;53.174;6.614;2023-04-24T13:26:57;10.90;99.90
61841;DHT22;47773;53.174;6.614;2023-04-24T13:29:23;10.90;99.90
61841;DHT22;47773;53.174;6.614;2023-04-24T13:31:53;11.00;99.90
61841;DHT22;47773;53.174;6.614;2023-04-24T13:34:25;10.90;99.90
61841;DHT22;47773;53.174;6.614;2023-04-24T13:36:55;10.90;99.90
61841;DHT22;47773;53.174;6.614;2023-04-24T13:39:21;10.80;99.90
61841;DHT22;47773;53.174;6.614;2023-04-24T13:41:47;10.80;99.90
61841;DHT22;47773;53.174;6.614;2023-04-24T13:44:16;10.90;99.90
61841;DHT22;47773;53.174;6.614;2023-04-24T13:46:43;10.90;99.90
61841;DHT22;47773;53.174;6.614;2023-04-24T13:49:10;10.90;99.90
61841;DHT22;47773;53.174;6.614;2023-04-24T13:51:36;11.00;99.90
61841;DHT22;47773;53.174;6.614;2023-04-24T13:54:01;11.00;99.90
61841;DHT22;47773;53.174;6.614;2023-04-24T13:56:27;11.00;99.90
61841;DHT22;47773;53.174;6.614;2023-04-24T13:58:53;11.00;99.90
61841;DHT22;47773;53.174;6.614;2023-04-24T14:01:22;11.00;99.90
61841;DHT22;47773;53.174;6.614;2023-04-24T14:03:54;10.90;99.90
61841;DHT22;47773;53.174;6.614;2023-04-24T14:06:21;10.90;99.90
61841;DHT22;47773;53.174;6.614;2023-04-24T14:08:47;10.90;99.90
61841;DHT22;47773;53.174;6.614;2023-04-24T14:11:13;10.90;99.90
61841;DHT22;47773;53.174;6.614;2023-04-24T14:13:41;10.80;99.90
61841;DHT22;47773;53.174;6.614;2023-04-24T14:16:06;10.70;99.90
61841;DHT22;47773;53.174;6.614;2023-04-24T14:18:32;10.60;99.90
61841;DHT22;47773;53.174;6.614;2023-04-24T14:20:58;10.50;99.90
61841;DHT22;47773;53.174;6.614;2023-04-24T14:23:24;10.50;99.90
61841;DHT22;47773;53.174;6.614;2023-04-24T14:25:50;10.30;99.90
61841;DHT22;47773;53.174;6.614;2023-04-24T14:28:18;10.30;99.90
61841;DHT22;47773;53.174;6.614;2023-04-24T14:30:44;10.30;99.90
61841;DHT22;47773;53.174;6.614;2023-04-24T14:33:10;10.20;99.90
61841;DHT22;47773;53.174;6.614;2023-04-24T14:35:37;10.20;99.90
61841;DHT22;47773;53.174;6.614;2023-04-24T14:38:03;10.10;99.90
61841;DHT22;47773;53.174;6.614;2023-04-24T14:40:28;10.10;99.90
61841;DHT22;47773;53.174;6.614;2023-04-24T14:42:54;10.20;99.90
61841;DHT22;47773;53.174;6.614;2023-04-24T14:45:20;10.20;99.90
61841;DHT22;47773;53.174;6.614;2023-04-24T14:47:45;10.30;99.90
61841;DHT22;47773;53.174;6.614;2023-04-24T14:50:11;10.40;99.90
61841;DHT22;47773;53.174;6.614;2023-04-24T14:52:38;10.40;99.90
61841;DHT22;47773;53.174;6.614;2023-04-24T14:55:04;10.50;99.90
61841;DHT22;47773;53.174;6.614;2023-04-24T14:57:30;10.50;99.90
61841;DHT22;47773;53.174;6.614;2023-04-24T14:59:56;10.50;99.90
61841;DHT22;47773;53.174;6.614;2023-04-24T15:02:21;10.50;99.90
61841;DHT22;47773;53.174;6.614;2023-04-24T15:04:47;10.50;99.90
61841;DHT22;47773;53.174;6.614;2023-04-24T15:07:13;10.50;99.90
61841;DHT22;47773;53.174;6.614;2023-04-24T15:09:38;10.40;99.90
61841;DHT22;47773;53.174;6.614;2023-04-24T15:12:04;10.30;99.90
61841;DHT22;47773;53.174;6.614;2023-04-24T15:14:30;10.30;99.90
61841;DHT22;47773;53.174;6.614;2023-04-24T15:16:55;10.30;99.90
61841;DHT22;47773;53.174;6.614;2023-04-24T15:19:21;10.30;99.90
61841;DHT22;47773;53.174;6.614;2023-04-24T15:21:47;10.30;99.90
61841;DHT22;47773;53.174;6.614;2023-04-24T15:24:12;10.30;99.90
61841;DHT22;47773;53.174;6.614;2023-04-24T15:26:38;10.30;99.90
61841;DHT22;47773;53.174;6.614;2023-04-24T15:29:04;10.30;99.90
61841;DHT22;47773;53.174;6.614;2023-04-24T15:31:29;10.20;99.90
61841;DHT22;47773;53.174;6.614;2023-04-24T15:33:55;10.10;99.90
61841;DHT22;47773;53.174;6.614;2023-04-24T15:36:21;10.20;99.90
61841;DHT22;47773;53.174;6.614;2023-04-24T15:38:47;10.20;99.90
61841;DHT22;47773;53.174;6.614;2023-04-24T15:41:13;10.20;99.90
61841;DHT22;47773;53.174;6.614;2023-04-24T15:43:38;10.20;99.90
61841;DHT22;47773;53.174;6.614;2023-04-24T15:46:06;10.20;99.90